createdAt,value
2023-04-09T00:04:12.820Z,6.4
2023-04-09T00:14:12.803Z,6.3
2023-04-09T00:24:12.812Z,6.2
2023-04-09T00:34:12.773Z,6
2023-04-09T00:44:12.768Z,5.8
2023-04-09T00:54:12.776Z,5.6
2023-04-09T01:04:12.778Z,5.4
2023-04-09T01:14:12.721Z,5.2
2023-04-09T01:24:12.702Z,5.1
2023-04-09T01:34:12.681Z,5.1
2023-04-09T01:44:12.682Z,5.2
2023-04-09T01:54:12.662Z,5.2
2023-04-09T02:04:12.658Z,5
2023-04-09T02:14:12.647Z,4.7
2023-04-09T02:24:12.632Z,4.5
2023-04-09T02:34:12.617Z,4.4
2023-04-09T02:44:12.611Z,4.3
2023-04-09T02:54:12.642Z,4.3
2023-04-09T03:04:12.655Z,4.1
2023-04-09T03:14:12.581Z,4
2023-04-09T03:24:12.546Z,3.9
2023-04-09T03:34:12.540Z,3.7
2023-04-09T03:44:12.573Z,3.6
2023-04-09T03:54:12.535Z,3.6
2023-04-09T04:04:12.606Z,3.6
2023-04-09T04:14:12.520Z,3.5
2023-04-09T04:24:12.548Z,3.3
2023-04-09T04:34:12.470Z,3.5
2023-04-09T04:44:12.473Z,3.2
2023-04-09T04:54:12.472Z,2.9
2023-04-09T05:04:12.450Z,2.9
2023-04-09T05:14:12.427Z,2.9
2023-04-09T05:24:12.452Z,3
2023-04-09T05:34:12.421Z,3
2023-04-09T05:44:12.390Z,3.1
2023-04-09T05:54:12.403Z,3.3
2023-04-09T06:04:12.589Z,3.3
2023-04-09T06:14:12.442Z,3.7
2023-04-09T06:24:12.349Z,3.9
2023-04-09T06:34:12.323Z,4.2
2023-04-09T06:44:12.321Z,4.6
2023-04-09T06:54:12.342Z,5.1
2023-04-09T07:04:12.356Z,5.6
2023-04-09T07:14:12.318Z,6.1
2023-04-09T07:24:12.265Z,6.5
2023-04-09T07:34:12.267Z,7
2023-04-09T07:44:12.256Z,7.5
2023-04-09T07:54:12.255Z,8
2023-04-09T08:04:12.348Z,8.6
2023-04-09T08:14:12.220Z,9.1
2023-04-09T08:24:12.261Z,9.5
2023-04-09T08:34:12.184Z,9.9
2023-04-09T08:44:12.186Z,10.4
2023-04-09T08:54:12.155Z,10.8
2023-04-09T09:04:12.142Z,11.3
2023-04-09T09:14:12.110Z,11.6
2023-04-09T09:24:12.059Z,12.2
2023-04-09T09:34:12.090Z,13.5
2023-04-09T09:44:12.041Z,15.4
2023-04-09T09:54:12.028Z,17.3
2023-04-09T10:04:12.055Z,18.9
2023-04-09T10:14:12.022Z,20.5
2023-04-09T10:24:12.012Z,21.4
2023-04-09T10:34:11.946Z,22.3
2023-04-09T10:44:11.949Z,23.1
2023-04-09T10:54:11.874Z,22.9
2023-04-09T11:04:11.903Z,23.9
2023-04-09T11:14:11.908Z,24.8
2023-04-09T11:24:11.845Z,24.4
2023-04-09T11:34:11.868Z,24.4
2023-04-09T11:44:11.818Z,24.7
2023-04-09T11:54:11.760Z,24.8
2023-04-09T12:04:11.917Z,25.6
2023-04-09T12:14:11.717Z,26
2023-04-09T12:24:11.722Z,25.9
2023-04-09T12:34:11.695Z,26.7
2023-04-09T12:44:11.655Z,27.4
2023-04-09T12:54:11.665Z,27.8
2023-04-09T13:04:11.737Z,27.3
2023-04-09T13:14:11.606Z,27.4
2023-04-09T13:24:11.599Z,26.6
2023-04-09T13:34:11.544Z,27.3
2023-04-09T13:44:11.525Z,28.4
2023-04-09T13:54:11.506Z,29.1
2023-04-09T14:04:11.537Z,29.3
2023-04-09T14:14:11.458Z,29.4
2023-04-09T14:24:11.445Z,29.1
2023-04-09T14:34:11.412Z,28.8
2023-04-09T14:44:11.383Z,28.4
2023-04-09T14:54:11.479Z,28.5
2023-04-09T15:04:11.426Z,28.1
2023-04-09T15:14:11.331Z,28.9
2023-04-09T15:24:11.318Z,29.4
2023-04-09T15:34:11.290Z,29.1
2023-04-09T15:44:11.260Z,28.3
2023-04-09T15:54:11.250Z,28.1
2023-04-09T16:04:11.271Z,27.9
2023-04-09T16:14:11.177Z,27.7
2023-04-09T16:24:11.153Z,27.1
2023-04-09T16:34:11.158Z,27
2023-04-09T16:44:11.132Z,26.5
2023-04-09T16:54:11.076Z,25.9
2023-04-09T17:04:11.091Z,25.9
2023-04-09T17:14:11.053Z,25.5
2023-04-09T17:24:11.053Z,24.4
2023-04-09T17:34:11.015Z,23.8
2023-04-09T17:44:10.997Z,22.5
2023-04-09T17:54:10.964Z,21.2
2023-04-09T18:04:11.254Z,19.9
2023-04-09T18:14:10.920Z,18.9
2023-04-09T18:24:10.925Z,18
2023-04-09T18:34:10.900Z,17.4
2023-04-09T18:44:10.862Z,16.7
2023-04-09T18:54:10.841Z,16.3
2023-04-09T19:04:11.056Z,15.8
2023-04-09T19:14:10.840Z,15.4
2023-04-09T19:24:10.789Z,14.8
2023-04-09T19:34:10.836Z,14.3
2023-04-09T19:44:10.781Z,13.9
2023-04-09T19:54:10.808Z,13.4
2023-04-09T20:04:10.789Z,13
2023-04-09T20:14:10.661Z,12.7
2023-04-09T20:24:10.692Z,12.4
2023-04-09T20:34:10.668Z,11.9
2023-04-09T20:44:10.634Z,11.7
2023-04-09T20:54:10.644Z,11.4
2023-04-09T21:04:10.728Z,11.2
2023-04-09T21:14:10.559Z,11.1
2023-04-09T21:24:10.563Z,10.8
2023-04-09T21:34:10.554Z,10.5
2023-04-09T21:44:10.560Z,10.2
2023-04-09T21:54:10.533Z,10
2023-04-09T22:04:10.594Z,9.8
2023-04-09T22:14:10.518Z,9.5
2023-04-09T22:24:10.497Z,9.2
2023-04-09T22:34:20.100Z,9.2
2023-04-09T22:44:10.442Z,9
2023-04-09T22:54:10.454Z,8.9
2023-04-09T23:04:10.488Z,8.7
2023-04-09T23:14:10.395Z,8.6
2023-04-09T23:24:10.369Z,8.4
2023-04-09T23:34:10.377Z,8.1
2023-04-09T23:44:10.364Z,7.9
2023-04-09T23:54:10.325Z,7.8
